Time;durP1;ratioP1;P1;durP2;ratioP2;P2;SDS_P1;SDS_P2;PMS_P1;PMS_P2;Temp;Humidity;BMP_temperature;BMP_pressure;BME280_temperature;BME280_humidity;BME280_pressure;Samples;Min_cycle;Max_cycle;Signal;HPM_P1;HPM_P2
2022/01/04 00:00:05;;;;;;;6.85;2.17;;;;;;;8.66;88.97;100300.28;4973304;28;97804;-42
2022/01/04 00:02:31;;;;;;;5.30;1.92;;;;;;;8.62;89.00;100287.06;4971345;28;101992;-42
2022/01/04 00:04:56;;;;;;;6.10;2.13;;;;;;;8.69;89.01;100291.13;4972910;28;108145;-42
2022/01/04 00:07:22;;;;;;;4.30;1.80;;;;;;;8.70;88.97;100293.72;4972709;28;117876;-42
2022/01/04 00:09:49;;;;;;;2.42;1.50;;;;;;;8.65;89.17;100287.75;4972690;28;98071;-42
2022/01/04 00:14:59;;;;;;;4.88;1.75;;;;;;;8.67;88.99;100276.84;4973319;28;96714;-42
2022/01/04 00:17:24;;;;;;;6.40;2.05;;;;;;;8.63;88.89;100261.81;4972802;28;96490;-42
2022/01/04 00:19:50;;;;;;;7.30;1.95;;;;;;;8.49;89.01;100239.25;4971387;28;100794;-42
2022/01/04 00:22:15;;;;;;;9.93;1.88;;;;;;;8.57;89.16;100238.75;4972837;28;97783;-42
2022/01/04 00:24:41;;;;;;;2.30;1.63;;;;;;;8.63;89.15;100257.28;4972227;28;110762;-42
2022/01/04 00:27:06;;;;;;;2.58;1.95;;;;;;;8.68;89.07;100257.00;4973217;28;96828;-42
2022/01/04 00:29:31;;;;;;;7.32;1.88;;;;;;;8.63;89.15;100234.81;4972942;28;97373;-42
2022/01/04 00:31:57;;;;;;;5.53;2.47;;;;;;;8.65;88.90;100244.56;4972786;28;97925;-42
2022/01/04 00:34:22;;;;;;;5.43;2.25;;;;;;;8.64;89.11;100248.22;4971891;28;96620;-43
2022/01/04 00:36:48;;;;;;;4.47;2.63;;;;;;;8.56;89.05;100231.63;4972065;28;120141;-42
2022/01/04 00:39:13;;;;;;;5.85;2.30;;;;;;;8.54;89.13;100219.22;4972357;28;97860;-42
2022/01/04 00:41:38;;;;;;;5.80;2.38;;;;;;;8.61;89.05;100243.00;4971517;28;126736;-42
2022/01/04 00:44:04;;;;;;;7.07;1.92;;;;;;;8.50;89.00;100215.81;4972479;28;96789;-42
2022/01/04 00:46:30;;;;;;;7.13;3.25;;;;;;;8.49;89.41;100225.75;4971347;28;97050;-42
2022/01/04 00:49:11;;;;;;;2.83;2.05;;;;;;;8.48;89.19;100204.25;4972421;28;97915;-42
2022/01/04 00:51:38;;;;;;;4.32;2.03;;;;;;;8.54;89.21;100221.91;4972879;28;97807;-42
2022/01/04 00:54:04;;;;;;;7.82;2.97;;;;;;;8.42;89.24;100205.50;4971318;28;96544;-42
2022/01/04 00:56:30;;;;;;;4.30;2.42;;;;;;;8.44;89.38;100202.72;4970774;28;96863;-42
2022/01/04 00:58:55;;;;;;;6.03;2.53;;;;;;;8.47;89.48;100214.19;4970857;28;126809;-42
2022/01/04 01:01:21;;;;;;;5.65;2.92;;;;;;;8.47;89.28;100216.03;4971823;28;98460;-42
2022/01/04 01:03:46;;;;;;;8.10;2.38;;;;;;;8.36;89.19;100194.19;4972370;28;96462;-42
2022/01/04 01:06:12;;;;;;;5.10;1.83;;;;;;;8.44;89.24;100203.59;4971275;28;121362;-42
2022/01/04 01:08:37;;;;;;;4.07;2.28;;;;;;;8.49;89.39;100200.59;4972209;28;99103;-42
2022/01/04 01:11:05;;;;;;;3.10;2.08;;;;;;;8.34;89.32;100172.69;4972090;28;99666;-42
2022/01/04 01:13:30;;;;;;;4.68;2.15;;;;;;;8.43;89.53;100196.44;4970929;28;96713;-42
2022/01/04 01:15:55;;;;;;;2.65;1.95;;;;;;;8.39;89.29;100184.09;4972898;28;96741;-42
2022/01/04 01:18:21;;;;;;;5.15;2.42;;;;;;;8.37;89.23;100167.13;4971233;28;125635;-42
2022/01/04 01:20:48;;;;;;;3.90;2.25;;;;;;;8.39;89.36;100176.00;4971788;28;98794;-42
2022/01/04 01:23:14;;;;;;;5.43;3.25;;;;;;;8.42;89.59;100178.53;4970348;28;97429;-42
2022/01/04 01:25:39;;;;;;;5.57;2.70;;;;;;;8.31;89.47;100162.09;4972058;28;96805;-42
2022/01/04 01:28:04;;;;;;;11.45;3.85;;;;;;;8.39;89.33;100164.31;4970937;28;125344;-42
2022/01/04 01:30:33;;;;;;;7.57;3.38;;;;;;;8.24;89.40;100140.03;4972075;28;97824;-42
2022/01/04 01:32:58;;;;;;;10.55;3.35;;;;;;;8.43;89.47;100166.75;4970776;28;96640;-42
2022/01/04 01:35:23;;;;;;;5.35;3.20;;;;;;;8.29;89.35;100139.75;4971005;28;122018;-42
2022/01/04 01:37:49;;;;;;;6.75;3.25;;;;;;;8.38;89.36;100160.75;4971754;28;99108;-42
2022/01/04 01:40:14;;;;;;;5.78;3.53;;;;;;;8.37;89.31;100156.34;4972722;28;97277;-42
2022/01/04 01:42:40;;;;;;;5.25;3.80;;;;;;;8.41;89.43;100165.97;4972127;28;96689;-42
2022/01/04 01:45:07;;;;;;;4.35;2.60;;;;;;;8.45;89.35;100156.72;4972939;28;96721;-42
2022/01/04 01:47:32;;;;;;;4.78;2.83;;;;;;;8.33;89.29;100127.81;4973309;28;102064;-43
2022/01/04 01:49:58;;;;;;;5.45;3.42;;;;;;;8.26;89.31;100123.75;4972736;28;117927;-42
2022/01/04 01:52:23;;;;;;;7.72;3.75;;;;;;;8.41;89.09;100135.44;4975234;28;96531;-42
2022/01/04 01:54:48;;;;;;;5.18;3.47;;;;;;;8.44;89.18;100127.16;4975310;28;96780;-42
2022/01/04 01:57:14;;;;;;;4.93;3.05;;;;;;;8.40;89.25;100123.78;4974614;28;99244;-42
2022/01/04 01:59:39;;;;;;;6.05;3.28;;;;;;;8.36;89.24;100115.94;4974223;28;125623;-42
2022/01/04 02:02:05;;;;;;;5.90;3.53;;;;;;;8.44;89.69;100127.16;4974818;28;96590;-42
2022/01/04 02:04:30;;;;;;;6.53;3.72;;;;;;;8.33;89.16;100102.66;4974827;28;117519;-42
2022/01/04 02:06:56;;;;;;;7.30;3.20;;;;;;;8.40;89.35;100118.38;4975054;28;97918;-42
2022/01/04 02:09:21;;;;;;;5.32;2.92;;;;;;;8.35;89.25;100098.03;4975067;28;97516;-42
2022/01/04 02:11:47;;;;;;;4.63;2.90;;;;;;;8.43;89.30;100106.53;4974727;28;96451;-42
2022/01/04 02:14:12;;;;;;;5.50;3.20;;;;;;;8.44;89.38;100111.84;4975001;28;96768;-42
2022/01/04 02:16:37;;;;;;;8.98;3.40;;;;;;;8.31;89.32;100089.25;4974803;28;97767;-42
2022/01/04 02:19:05;;;;;;;8.45;3.40;;;;;;;8.29;89.51;100077.69;4973457;28;122801;-43
2022/01/04 02:21:32;;;;;;;7.28;4.18;;;;;;;8.44;89.29;100097.47;4973489;28;96629;-43
2022/01/04 02:23:57;;;;;;;5.13;3.15;;;;;;;8.36;89.12;100080.88;4973497;28;96798;-42
2022/01/04 02:26:23;;;;;;;7.18;4.00;;;;;;;8.38;89.13;100104.09;4974811;28;97945;-42
2022/01/04 02:28:50;;;;;;;6.05;3.67;;;;;;;8.27;89.29;100074.22;4975076;28;97849;-42
2022/01/04 02:31:15;;;;;;;5.25;3.63;;;;;;;8.27;89.23;100075.13;4973325;28;96874;-42
2022/01/04 02:33:40;;;;;;;9.88;3.28;;;;;;;8.41;89.24;100084.16;4973938;28;112564;-42
2022/01/04 02:36:05;;;;;;;8.57;5.05;;;;;;;8.28;89.25;100054.38;4973785;28;99351;-42
2022/01/04 02:38:32;;;;;;;8.18;3.65;;;;;;;8.38;89.18;100068.16;4973401;28;97529;-42
2022/01/04 02:40:57;;;;;;;8.70;3.85;;;;;;;8.23;89.33;100051.13;4974384;28;96461;-42
2022/01/04 02:43:23;;;;;;;14.52;3.53;;;;;;;8.35;89.18;100061.13;4973590;28;121775;-42
2022/01/04 02:45:48;;;;;;;10.43;3.50;;;;;;;8.32;89.39;100047.84;4973392;28;126339;-42
2022/01/04 02:48:13;;;;;;;5.47;3.47;;;;;;;8.32;89.29;100050.53;4973340;28;125182;-42
2022/01/04 02:50:39;;;;;;;6.88;3.90;;;;;;;8.36;89.25;100057.44;4974061;28;96743;-42
2022/01/04 02:53:04;;;;;;;5.80;3.28;;;;;;;8.38;89.14;100057.34;4973737;28;121944;-42
2022/01/04 02:55:29;;;;;;;7.88;3.42;;;;;;;8.30;89.25;100036.28;4973478;28;122622;-42
2022/01/04 02:57:54;;;;;;;5.97;3.72;;;;;;;8.25;89.29;100036.56;4972440;28;112641;-42
2022/01/04 03:00:20;;;;;;;5.45;3.63;;;;;;;8.34;89.19;100040.47;4973779;28;96550;-42
2022/01/04 03:02:45;;;;;;;7.95;2.72;;;;;;;8.28;89.15;100027.41;4973538;28;109698;-42
2022/01/04 03:05:11;;;;;;;12.73;3.47;;;;;;;8.32;89.09;100018.16;4974034;28;98052;-42
2022/01/04 03:07:37;;;;;;;5.82;3.17;;;;;;;8.42;89.16;100038.19;4974050;28;97750;-42
2022/01/04 03:10:05;;;;;;;6.40;3.17;;;;;;;8.40;89.13;100037.44;4972796;28;96479;-42
2022/01/04 03:12:30;;;;;;;9.18;3.25;;;;;;;8.39;89.17;100026.69;4972703;28;97012;-42
2022/01/04 03:14:55;;;;;;;6.22;2.55;;;;;;;8.28;89.13;99997.72;4973933;28;96802;-42
2022/01/04 03:17:20;;;;;;;10.50;3.00;;;;;;;8.33;89.13;100013.63;4973462;28;110748;-42
2022/01/04 03:19:46;;;;;;;5.50;2.65;;;;;;;8.33;89.22;100001.00;4973194;28;122049;-42
2022/01/04 03:22:11;;;;;;;5.20;3.08;;;;;;;8.32;89.19;99992.97;4973822;28;105491;-43
2022/01/04 03:24:36;;;;;;;5.65;3.00;;;;;;;8.22;89.50;99976.53;4972662;28;113101;-42
2022/01/04 03:27:02;;;;;;;5.72;3.22;;;;;;;8.17;89.22;99967.88;4973080;28;123769;-42
2022/01/04 03:29:27;;;;;;;6.15;3.17;;;;;;;8.26;89.26;99980.78;4973909;28;96513;-42
2022/01/04 03:31:54;;;;;;;6.43;2.40;;;;;;;8.19;89.31;99963.25;4973837;28;96747;-42
2022/01/04 03:34:20;;;;;;;4.28;2.30;;;;;;;8.17;89.37;99965.19;4973325;28;97893;-42
2022/01/04 03:36:45;;;;;;;4.78;3.25;;;;;;;8.28;89.16;99973.44;4973544;28;97351;-42
2022/01/04 03:39:11;;;;;;;8.18;2.95;;;;;;;8.29;89.04;99970.66;4973883;28;96509;-42
2022/01/04 03:41:39;;;;;;;5.57;2.75;;;;;;;8.30;89.23;99961.59;4972521;28;96756;-42
2022/01/04 03:44:06;;;;;;;6.13;3.67;;;;;;;8.19;89.10;99929.06;4971968;28;104070;-42
2022/01/04 03:46:31;;;;;;;10.05;2.97;;;;;;;8.17;89.12;99928.28;4971934;28;101004;-42
2022/01/04 03:48:56;;;;;;;7.95;3.05;;;;;;;8.14;89.08;99924.94;4972060;28;112847;-42
2022/01/04 03:51:22;;;;;;;5.03;3.08;;;;;;;8.13;89.14;99920.50;4972618;28;123010;-42
2022/01/04 03:53:47;;;;;;;6.45;3.47;;;;;;;8.09;89.04;99926.09;4971947;28;99101;-42
2022/01/04 03:56:13;;;;;;;5.43;2.65;;;;;;;8.21;89.23;99945.16;4973256;28;97756;-42
2022/01/04 03:58:38;;;;;;;3.10;1.85;;;;;;;8.06;89.46;99918.22;4973438;28;96564;-42
2022/01/04 04:01:04;;;;;;;6.50;3.50;;;;;;;7.98;89.46;99904.38;4972954;28;96873;-42
2022/01/04 04:03:30;;;;;;;4.85;2.47;;;;;;;8.00;90.07;99913.22;4973436;28;97857;-42
2022/01/04 04:05:55;;;;;;;4.00;2.45;;;;;;;8.08;89.98;99915.44;4971976;28;100904;-42
2022/01/04 04:08:20;;;;;;;4.57;2.40;;;;;;;8.01;90.15;99903.31;4973211;28;96510;-42
2022/01/04 04:10:46;;;;;;;6.68;2.70;;;;;;;8.07;90.14;99921.78;4973404;28;96707;-42
2022/01/04 04:13:11;;;;;;;3.22;1.90;;;;;;;7.92;90.36;99904.78;4972734;28;103469;-42
2022/01/04 04:15:40;;;;;;;7.85;3.40;;;;;;;7.99;90.26;99908.81;4971901;28;97790;-42
2022/01/04 04:18:06;;;;;;;5.95;3.28;;;;;;;8.01;90.21;99911.41;4972740;28;96755;-42
2022/01/04 04:20:31;;;;;;;8.43;3.80;;;;;;;7.86;90.38;99883.59;4971724;28;96936;-42
2022/01/04 04:22:56;;;;;;;4.43;3.00;;;;;;;7.90;91.09;99884.28;4973024;28;97813;-42
2022/01/04 04:25:22;;;;;;;9.52;4.57;;;;;;;7.92;90.30;99887.75;4971912;28;126596;-42
2022/01/04 04:27:47;;;;;;;10.68;3.75;;;;;;;7.85;90.65;99879.19;4973100;28;96506;-42
2022/01/04 04:30:12;;;;;;;6.32;3.13;;;;;;;7.99;90.36;99905.25;4973256;28;96658;-42
2022/01/04 04:32:38;;;;;;;5.15;3.00;;;;;;;7.96;90.59;99892.84;4973136;28;97367;-42
2022/01/04 04:35:04;;;;;;;7.18;3.72;;;;;;;7.97;90.75;99891.00;4972819;28;97654;-42
2022/01/04 04:37:29;;;;;;;11.02;3.97;;;;;;;7.87;90.15;99872.72;4970969;28;97429;-42
2022/01/04 04:39:55;;;;;;;9.52;3.97;;;;;;;7.94;90.63;99881.28;4971319;28;96813;-42
2022/01/04 04:42:20;;;;;;;12.77;3.53;;;;;;;7.90;90.33;99865.41;4970362;28;123568;-42
2022/01/04 04:44:46;;;;;;;5.38;3.03;;;;;;;7.97;90.31;99872.97;4971230;28;99215;-42
2022/01/04 04:47:12;;;;;;;9.77;4.22;;;;;;;7.99;90.29;99880.97;4972444;28;96601;-42
2022/01/04 04:49:37;;;;;;;7.65;4.38;;;;;;;7.96;90.40;99879.34;4972260;28;96780;-42
2022/01/04 04:52:03;;;;;;;8.38;4.90;;;;;;;7.95;90.07;99877.63;4972644;28;97805;-42
2022/01/04 04:54:29;;;;;;;6.72;3.38;;;;;;;7.96;90.54;99871.28;4971443;28;102157;-42
2022/01/04 04:56:54;;;;;;;4.90;3.22;;;;;;;7.94;90.56;99862.41;4970876;28;97031;-43
2022/01/04 04:59:20;;;;;;;9.38;4.22;;;;;;;7.94;90.32;99873.19;4972610;28;96722;-43
2022/01/04 05:01:45;;;;;;;8.25;3.22;;;;;;;7.87;90.49;99866.47;4971373;28;97847;-42
2022/01/04 05:04:10;;;;;;;7.47;3.53;;;;;;;7.86;90.54;99852.16;4972321;28;97804;-42
2022/01/04 05:06:36;;;;;;;15.95;4.05;;;;;;;7.97;90.40;99859.50;4971854;28;110131;-43
2022/01/04 05:09:01;;;;;;;4.80;2.83;;;;;;;7.98;90.48;99850.44;4971396;28;121882;-42
2022/01/04 05:11:26;;;;;;;5.40;3.47;;;;;;;7.86;90.45;99830.56;4972406;28;97796;-42
2022/01/04 05:13:52;;;;;;;7.70;4.28;;;;;;;7.84;90.28;99827.13;4971192;28;125872;-42
2022/01/04 05:16:17;;;;;;;6.30;3.25;;;;;;;7.95;90.51;99850.66;4972344;28;96757;-42
2022/01/04 05:18:42;;;;;;;6.07;3.08;;;;;;;7.96;90.15;99856.91;4972024;28;110841;-42
2022/01/04 05:21:08;;;;;;;4.85;3.25;;;;;;;7.90;90.48;99849.22;4977063;28;104918;-42
2022/01/04 05:23:33;;;;;;;7.93;4.15;;;;;;;7.92;90.33;99850.84;4976798;28;118408;-42
2022/01/04 05:25:58;;;;;;;6.25;2.97;;;;;;;7.87;90.31;99853.00;4977461;28;122540;-42
2022/01/04 05:28:24;;;;;;;6.38;3.65;;;;;;;7.84;90.66;99831.63;4977410;28;96796;-42
2022/01/04 05:30:49;;;;;;;5.75;3.00;;;;;;;7.88;90.46;99825.91;4978660;28;97885;-42
2022/01/04 05:33:14;;;;;;;10.93;4.97;;;;;;;7.88;90.33;99828.63;4977732;28;126561;-42
2022/01/04 05:35:40;;;;;;;9.52;4.32;;;;;;;7.93;90.56;99841.78;4977706;28;122315;-42
2022/01/04 05:38:05;;;;;;;10.93;4.38;;;;;;;7.85;90.79;99828.84;4979009;28;96707;-42
2022/01/04 05:40:31;;;;;;;6.10;3.58;;;;;;;7.97;90.94;99843.31;4978591;28;97955;-42
2022/01/04 05:42:56;;;;;;;7.35;3.42;;;;;;;7.91;90.70;99826.69;4978961;28;97388;-42
2022/01/04 05:45:21;;;;;;;6.78;3.90;;;;;;;7.85;90.77;99811.78;4977457;28;122215;-42
2022/01/04 05:47:47;;;;;;;6.32;3.67;;;;;;;7.96;90.92;99836.22;4978325;28;96725;-42
2022/01/04 05:50:13;;;;;;;6.93;4.15;;;;;;;7.85;91.01;99823.44;4977913;28;97889;-42
2022/01/04 05:52:38;;;;;;;5.90;3.75;;;;;;;7.89;91.08;99843.00;4978436;28;98365;-42
2022/01/04 05:55:04;;;;;;;6.20;2.92;;;;;;;7.86;91.03;99827.88;4978550;28;96570;-41
2022/01/04 05:57:30;;;;;;;7.80;3.80;;;;;;;7.82;90.82;99820.09;4976529;28;97081;-41
2022/01/04 05:59:55;;;;;;;7.78;3.88;;;;;;;7.81;90.96;99807.56;4978233;28;97923;-41
2022/01/04 06:02:20;;;;;;;6.15;3.65;;;;;;;7.93;90.86;99822.91;4977672;28;97783;-41
2022/01/04 06:04:46;;;;;;;8.07;3.28;;;;;;;7.94;90.90;99821.97;4977272;28;121446;-41
2022/01/04 06:07:11;;;;;;;7.40;4.25;;;;;;;7.89;90.90;99818.72;4977741;28;121433;-41
2022/01/04 06:09:44;;;;;;;10.15;4.18;;;;;;;7.86;90.75;99803.63;4978031;28;99159;-41
2022/01/04 06:15:00;;;;;;;10.68;4.45;;;;;;;7.82;91.02;99779.66;4975177;28;96593;-41
2022/01/04 06:17:33;;;;;;;9.05;3.83;;;;;;;7.81;90.90;99772.53;4978506;28;96609;-41
2022/01/04 06:19:59;;;;;;;9.95;3.90;;;;;;;7.93;90.97;99809.44;4978361;28;97529;-41
2022/01/04 06:22:26;;;;;;;6.65;4.10;;;;;;;7.91;91.10;99802.41;4976529;28;99857;-41
2022/01/04 06:24:52;;;;;;;4.55;2.85;;;;;;;7.88;90.95;99807.03;4976630;28;96723;-41
2022/01/04 06:27:18;;;;;;;6.97;4.28;;;;;;;7.87;90.87;99804.47;4976610;28;96731;-41
2022/01/04 06:29:44;;;;;;;10.48;4.47;;;;;;;7.87;90.90;99802.63;4978099;28;97382;-41
2022/01/04 06:32:11;;;;;;;6.28;3.22;;;;;;;7.80;91.11;99785.16;4975150;28;97816;-41
2022/01/04 06:34:38;;;;;;;8.80;3.58;;;;;;;7.81;90.84;99775.22;4973329;28;96891;-41
2022/01/04 06:37:04;;;;;;;6.57;3.63;;;;;;;7.85;91.11;99777.59;4973232;28;96776;-41
2022/01/04 06:39:31;;;;;;;7.60;4.10;;;;;;;7.86;90.97;99775.78;4972249;28;100937;-41
2022/01/04 06:41:56;;;;;;;14.07;4.63;;;;;;;7.85;91.06;99765.97;4973079;28;101616;-41
2022/01/04 06:44:22;;;;;;;5.35;3.53;;;;;;;7.74;91.07;99753.19;4974608;28;96498;-41
2022/01/04 06:46:47;;;;;;;5.90;2.63;;;;;;;7.72;91.15;99751.56;4972173;28;121958;-41
2022/01/04 06:49:14;;;;;;;6.20;3.35;;;;;;;7.76;91.03;99759.34;4974106;28;98430;-41
2022/01/04 06:51:41;;;;;;;9.02;4.07;;;;;;;7.76;91.16;99756.66;4972917;28;101072;-41
2022/01/04 06:54:08;;;;;;;5.72;3.22;;;;;;;7.71;91.14;99747.16;4972880;28;96499;-41
2022/01/04 06:56:34;;;;;;;7.05;4.20;;;;;;;7.70;91.42;99743.63;4973057;28;96827;-41
2022/01/04 06:58:59;;;;;;;6.38;3.45;;;;;;;7.86;91.23;99760.47;4972558;28;101298;-41
2022/01/04 07:01:25;;;;;;;7.10;3.63;;;;;;;7.77;91.19;99738.66;4973684;28;97375;-41
2022/01/04 07:03:50;;;;;;;6.22;3.50;;;;;;;7.89;91.23;99756.72;4972883;28;122646;-41
2022/01/04 07:06:15;;;;;;;6.43;4.22;;;;;;;7.78;91.10;99729.59;4974227;28;96701;-41
2022/01/04 07:08:41;;;;;;;6.55;3.50;;;;;;;7.86;91.11;99747.00;4973029;28;121170;-41
2022/01/04 07:11:06;;;;;;;5.43;2.92;;;;;;;7.87;91.29;99745.16;4973853;28;99090;-41
2022/01/04 07:13:31;;;;;;;7.57;3.58;;;;;;;7.91;91.66;99729.63;4973929;28;96549;-41
2022/01/04 07:15:56;;;;;;;5.95;3.65;;;;;;;7.72;91.07;99708.44;4974503;28;96715;-41
2022/01/04 07:18:22;;;;;;;9.23;3.58;;;;;;;7.87;91.54;99737.94;4973162;28;111563;-41
2022/01/04 07:20:47;;;;;;;8.07;4.20;;;;;;;7.68;91.06;99715.03;4974017;28;99290;-41
2022/01/04 07:23:13;;;;;;;6.20;3.65;;;;;;;7.88;91.15;99736.94;4973896;28;96653;-41
2022/01/04 07:25:38;;;;;;;11.38;4.22;;;;;;;7.85;91.03;99737.16;4973355;28;114974;-41
2022/01/04 07:28:03;;;;;;;5.65;3.08;;;;;;;7.73;90.99;99707.50;4973291;28;97673;-41
2022/01/04 07:30:29;;;;;;;8.88;4.35;;;;;;;7.79;91.09;99718.69;4973716;28;97361;-42
2022/01/04 07:32:54;;;;;;;6.78;3.20;;;;;;;7.77;91.32;99707.19;4973937;28;96443;-41
2022/01/04 07:35:19;;;;;;;7.72;3.80;;;;;;;7.82;91.10;99715.81;4972440;28;96966;-41
2022/01/04 07:37:45;;;;;;;7.43;3.95;;;;;;;7.76;91.12;99715.38;4973016;28;109563;-41
2022/01/04 07:40:11;;;;;;;7.13;4.35;;;;;;;7.77;91.21;99715.28;4973378;28;99087;-41
2022/01/04 07:42:36;;;;;;;6.45;3.78;;;;;;;7.82;91.08;99723.06;4973132;28;96534;-41
2022/01/04 07:45:02;;;;;;;7.97;4.20;;;;;;;7.80;91.13;99731.22;4973456;28;109870;-41
2022/01/04 07:47:28;;;;;;;6.70;3.33;;;;;;;7.77;91.32;99711.69;4971904;28;100838;-42
2022/01/04 07:49:53;;;;;;;6.30;3.40;;;;;;;7.86;91.32;99728.13;4973219;28;97811;-42
2022/01/04 07:52:18;;;;;;;7.53;3.00;;;;;;;7.78;91.31;99716.13;4972163;28;121365;-41
2022/01/04 07:54:44;;;;;;;5.38;2.75;;;;;;;7.77;91.19;99709.00;4973435;28;96741;-42
2022/01/04 07:57:10;;;;;;;6.63;3.17;;;;;;;7.76;91.17;99721.63;4972886;28;99294;-41
2022/01/04 07:59:36;;;;;;;8.57;3.65;;;;;;;7.78;91.30;99735.00;4971610;28;100758;-41
2022/01/04 08:02:01;;;;;;;8.18;3.92;;;;;;;7.77;91.49;99734.16;4973000;28;96715;-41
2022/01/04 08:04:27;;;;;;;6.70;3.92;;;;;;;7.80;91.62;99738.47;4973344;28;96705;-41
2022/01/04 08:06:52;;;;;;;7.47;3.75;;;;;;;7.74;91.33;99717.28;4971812;28;100773;-42
2022/01/04 08:09:17;;;;;;;14.18;4.05;;;;;;;7.71;91.56;99725.59;4973127;28;105556;-41
2022/01/04 08:11:42;;;;;;;6.97;4.40;;;;;;;7.66;91.55;99726.78;4972225;28;122326;-41
2022/01/04 08:14:08;;;;;;;9.93;4.05;;;;;;;7.76;91.25;99734.22;4973010;28;96683;-41
2022/01/04 08:16:34;;;;;;;9.00;4.53;;;;;;;7.64;91.42;99720.63;4972302;28;98738;-41
2022/01/04 08:19:00;;;;;;;7.75;4.65;;;;;;;7.79;91.39;99747.50;4971426;28;101214;-41
2022/01/04 08:21:25;;;;;;;11.75;4.13;;;;;;;7.77;92.16;99749.44;4973246;28;96571;-41
2022/01/04 08:23:51;;;;;;;6.00;3.22;;;;;;;7.73;92.22;99761.41;4972866;28;96815;-41
2022/01/04 08:26:16;;;;;;;3.28;2.20;;;;;;;7.71;91.94;99753.41;4973022;28;97916;-41
2022/01/04 08:28:41;;;;;;;11.68;3.65;;;;;;;7.69;91.72;99765.25;4971795;28;127293;-41
2022/01/04 08:31:07;;;;;;;7.72;3.83;;;;;;;7.65;92.17;99770.88;4973112;28;96656;-41
2022/01/04 08:33:33;;;;;;;7.25;3.40;;;;;;;7.61;92.00;99755.00;4973214;28;96787;-41
2022/01/04 08:35:58;;;;;;;8.13;2.70;;;;;;;7.82;92.03;99785.06;4972620;28;99635;-41
2022/01/04 08:38:23;;;;;;;5.60;2.10;;;;;;;7.81;91.85;99786.84;4972158;28;107493;-41
2022/01/04 08:40:49;;;;;;;3.10;2.08;;;;;;;7.80;91.56;99795.94;4972318;28;96607;-41
2022/01/04 08:43:14;;;;;;;2.65;1.52;;;;;;;7.68;91.65;99774.34;4972334;28;101067;-41
2022/01/04 08:45:39;;;;;;;9.07;2.03;;;;;;;7.74;91.60;99796.31;4972711;28;97500;-41
2022/01/04 08:48:05;;;;;;;3.47;1.55;;;;;;;7.73;91.79;99788.38;4971660;28;126732;-41
2022/01/04 08:50:30;;;;;;;5.38;1.80;;;;;;;7.69;91.50;99784.13;4972414;28;96775;-42
2022/01/04 08:52:56;;;;;;;2.20;1.23;;;;;;;7.75;91.63;99789.97;4972393;28;97996;-41
2022/01/04 08:55:23;;;;;;;2.60;1.20;;;;;;;7.65;91.58;99768.19;4970304;28;100831;-42
2022/01/04 08:57:49;;;;;;;3.42;0.90;;;;;;;7.76;91.71;99788.16;4971096;28;100660;-41
2022/01/04 09:00:15;;;;;;;1.23;1.00;;;;;;;7.68;91.50;99763.56;4972560;28;96517;-41
2022/01/04 09:02:40;;;;;;;2.40;1.17;;;;;;;7.79;91.48;99782.53;4970540;28;97334;-41
2022/01/04 09:05:07;;;;;;;6.88;1.98;;;;;;;7.80;91.62;99787.84;4971863;28;99180;-42
2022/01/04 09:07:33;;;;;;;2.65;1.52;;;;;;;7.72;91.42;99759.66;4970581;28;99177;-41
2022/01/04 09:09:58;;;;;;;3.20;1.83;;;;;;;7.83;91.50;99793.00;4938319;28;96596;-41
2022/01/04 09:12:30;;;;;;;5.40;1.98;;;;;;;7.71;91.48;99774.13;4972879;28;96656;-42
2022/01/04 09:15:04;;;;;;;3.35;1.40;;;;;;;7.68;91.57;99774.34;4970995;28;101006;-41
2022/01/04 09:20:13;;;;;;;6.35;2.00;;;;;;;7.71;91.70;99768.72;4972787;28;96595;-41
2022/01/04 09:22:40;;;;;;;2.60;1.42;;;;;;;7.73;91.78;99778.44;4972700;28;96670;-41
2022/01/04 09:25:07;;;;;;;2.65;1.55;;;;;;;7.69;91.73;99768.81;4970690;28;101463;-41
2022/01/04 09:27:32;;;;;;;9.52;2.28;;;;;;;7.68;91.85;99768.94;4970739;28;101138;-41
2022/01/04 09:30:02;;;;;;;2.92;1.85;;;;;;;7.72;91.76;99775.84;4971567;28;103450;-41
2022/01/04 09:32:28;;;;;;;2.78;1.73;;;;;;;7.80;91.81;99790.53;4970537;28;96890;-41
2022/01/04 09:34:53;;;;;;;5.22;2.92;;;;;;;7.75;91.66;99775.66;4970688;28;100323;-41
2022/01/04 09:37:18;;;;;;;6.93;2.95;;;;;;;7.73;91.84;99770.34;4971135;28;126852;-41
2022/01/04 09:39:44;;;;;;;3.78;2.47;;;;;;;7.81;91.84;99789.56;4971947;28;96696;-41
2022/01/04 09:42:09;;;;;;;4.22;2.75;;;;;;;7.71;91.89;99766.88;4971195;28;117852;-41
2022/01/04 09:44:36;;;;;;;3.53;2.15;;;;;;;7.83;92.06;99784.06;4971774;28;98422;-42
2022/01/04 09:47:03;;;;;;;6.13;2.28;;;;;;;7.86;91.72;99792.84;4971838;28;99568;-42
2022/01/04 09:49:29;;;;;;;9.05;2.67;;;;;;;7.76;92.13;99777.38;4970435;28;96806;-41
2022/01/04 09:51:56;;;;;;;4.18;2.25;;;;;;;7.79;91.94;99778.00;4971988;28;96707;-41
2022/01/04 09:54:23;;;;;;;7.25;2.65;;;;;;;7.86;91.97;99781.16;4969875;28;100928;-41
2022/01/04 09:56:50;;;;;;;8.10;2.80;;;;;;;7.96;91.96;99784.09;4970098;28;100926;-42
2022/01/04 09:59:16;;;;;;;4.97;2.97;;;;;;;7.99;92.00;99792.00;4971782;28;96514;-41
2022/01/04 10:01:43;;;;;;;4.75;2.05;;;;;;;7.91;91.70;99772.75;4969696;28;96780;-41
2022/01/04 10:04:09;;;;;;;5.68;3.15;;;;;;;7.96;91.86;99782.28;4971567;28;97838;-41
2022/01/04 10:06:37;;;;;;;10.07;3.20;;;;;;;7.97;92.03;99780.44;4972996;28;99417;-41
2022/01/04 10:09:08;;;;;;;7.00;2.20;;;;;;;8.05;91.84;99789.72;4974996;28;96594;-41
2022/01/04 10:11:35;;;;;;;6.07;3.72;;;;;;;8.07;91.69;99785.09;4974042;28;96799;-41
2022/01/04 10:14:32;;;;;;;3.95;2.45;;;;;;;8.07;91.73;99787.78;4974680;28;99480;-41
2022/01/04 10:17:03;;;;;;;5.00;2.58;;;;;;;8.05;91.76;99778.94;4974896;28;97687;-41
2022/01/04 10:19:29;;;;;;;4.43;2.42;;;;;;;8.06;91.58;99787.91;4973165;28;97563;-41
2022/01/04 10:22:20;;;;;;;5.68;2.83;;;;;;;8.12;91.82;99792.00;4974894;28;96734;-41
2022/01/04 10:24:48;;;;;;;2.78;1.75;;;;;;;8.11;91.77;99782.22;4975143;28;96987;-41
2022/01/04 10:27:30;;;;;;;7.18;1.55;;;;;;;8.11;91.87;99769.56;4973307;28;100745;-41
2022/01/04 10:30:15;;;;;;;;;;;;;;;8.15;91.80;99773.81;4973684;28;97786;-41
2022/01/04 10:32:56;;;;;;;3.15;0.82;;;;;;;7.91;91.49;99732.31;4975059;28;96683;-41
2022/01/04 10:35:48;;;;;;;3.88;1.23;;;;;;;8.00;91.55;99740.63;4974406;28;99046;-41
2022/01/04 10:38:14;;;;;;;1.85;0.70;;;;;;;8.20;91.55;99774.34;4975032;28;97922;-41
2022/01/04 10:40:41;;;;;;;1.23;0.90;;;;;;;8.21;91.38;99764.41;4974815;28;96582;-41
2022/01/04 10:43:11;;;;;;;5.35;1.05;;;;;;;8.22;91.50;99766.13;4972998;28;98927;-41
2022/01/04 10:45:37;;;;;;;7.43;1.15;;;;;;;8.20;91.41;99762.66;4972359;28;101157;-41
2022/01/04 10:48:21;;;;;;;3.22;1.17;;;;;;;8.09;91.44;99750.78;4972957;28;100899;-41
2022/01/04 10:50:49;;;;;;;2.63;1.15;;;;;;;8.09;91.37;99753.50;4974343;28;96812;-41
2022/01/04 10:53:35;;;;;;;4.57;0.85;;;;;;;8.20;91.35;99770.75;4973053;28;96818;-41
2022/01/04 10:56:03;;;;;;;9.10;1.25;;;;;;;8.08;91.27;99754.47;4972501;28;101324;-41
2022/01/04 10:58:34;;;;;;;10.95;1.38;;;;;;;8.17;91.13;99771.84;4972668;28;101084;-41
2022/01/04 11:01:03;;;;;;;8.68;1.42;;;;;;;8.17;91.12;99773.69;4974055;28;96746;-41
2022/01/04 11:03:32;;;;;;;3.15;1.25;;;;;;;8.21;91.14;99781.44;4973397;28;96833;-41
2022/01/04 11:06:04;;;;;;;1.70;0.85;;;;;;;8.14;91.02;99763.09;4972737;28;101172;-41
2022/01/04 11:08:29;;;;;;;5.60;1.25;;;;;;;8.18;91.53;99772.72;4972365;28;100966;-41
2022/01/04 11:10:55;;;;;;;3.60;1.52;;;;;;;8.14;91.49;99763.97;4973701;28;96608;-41
2022/01/04 11:13:22;;;;;;;4.65;1.17;;;;;;;8.18;91.18;99781.69;4972630;28;97211;-41
2022/01/04 11:15:48;;;;;;;1.60;0.85;;;;;;;8.12;91.28;99782.09;4972515;28;101235;-41
2022/01/04 11:18:13;;;;;;;5.03;1.33;;;;;;;8.13;91.12;99789.22;4971858;28;101562;-41
2022/01/04 11:20:41;;;;;;;4.90;0.90;;;;;;;8.08;91.05;99808.41;4974072;28;96470;-41
2022/01/04 11:23:06;;;;;;;0.35;0.35;;;;;;;7.96;90.65;99786.78;4972516;28;96739;-42
2022/01/04 11:25:32;;;;;;;0.63;0.10;;;;;;;8.01;90.48;99809.78;4974140;28;97353;-41
2022/01/04 11:28:01;;;;;;;0.68;0.25;;;;;;;8.01;90.81;99815.19;4972766;28;101221;-41
2022/01/04 11:30:52;;;;;;;0.50;0.28;;;;;;;7.93;90.76;99800.50;4973726;28;96523;-41
2022/01/04 11:33:28;;;;;;;0.50;0.40;;;;;;;8.03;90.56;99831.25;4973722;28;96574;-42
2022/01/04 11:35:55;;;;;;;1.02;0.50;;;;;;;7.79;90.31;99791.47;4971735;28;100896;-41
2022/01/04 11:38:37;;;;;;;0.20;0.20;;;;;;;7.99;90.10;99829.75;4972184;28;100546;-41
2022/01/04 11:41:04;;;;;;;1.50;0.30;;;;;;;7.90;90.16;99820.44;4973843;28;96447;-41